createdAt,value
2023-02-23T00:01:22.164Z,98964.00
2023-02-23T00:02:58.860Z,98963.00
2023-02-23T00:04:32.402Z,98954.00
2023-02-23T00:06:06.235Z,98962.00
2023-02-23T00:07:39.620Z,98966.00
2023-02-23T00:09:22.883Z,98954.00
2023-02-23T00:10:58.579Z,98953.00
2023-02-23T00:12:31.705Z,98962.00
2023-02-23T00:14:08.176Z,98956.00
2023-02-23T00:15:41.254Z,98959.00
2023-02-23T00:17:17.450Z,98955.00
2023-02-23T00:18:53.792Z,98955.00
2023-02-23T00:20:28.094Z,98963.00
2023-02-23T00:22:01.312Z,98958.00
2023-02-23T00:23:34.464Z,98962.00
2023-02-23T00:25:09.922Z,98962.00
2023-02-23T00:26:43.446Z,98956.00
2023-02-23T00:28:16.449Z,98951.00
2023-02-23T00:29:52.006Z,98951.00
2023-02-23T00:31:27.326Z,98954.00
2023-02-23T00:33:00.549Z,98953.00
2023-02-23T00:34:35.577Z,98961.00
2023-02-23T00:36:13.464Z,98955.00
2023-02-23T00:37:48.287Z,98958.00
2023-02-23T00:39:21.861Z,98949.00
2023-02-23T00:40:54.993Z,98955.00
2023-02-23T00:42:29.804Z,98950.00
2023-02-23T00:44:06.169Z,98948.00
2023-02-23T00:45:40.700Z,98948.00
2023-02-23T00:47:14.411Z,98930.00
2023-02-23T00:48:49.507Z,98947.00
2023-02-23T00:50:23.189Z,98941.00
2023-02-23T00:51:55.461Z,98950.00
2023-02-23T00:53:28.918Z,98942.00
2023-02-23T00:55:01.095Z,98947.00
2023-02-23T00:56:35.057Z,98935.00
2023-02-23T00:58:09.565Z,98945.00
2023-02-23T00:59:42.816Z,98955.00
2023-02-23T01:01:19.086Z,98943.00
2023-02-23T01:02:52.428Z,98944.00
2023-02-23T01:04:25.967Z,98952.00
2023-02-23T01:06:04.552Z,98945.00
2023-02-23T01:07:37.906Z,98944.00
2023-02-23T01:09:14.650Z,98942.00
2023-02-23T01:10:53.686Z,98935.00
2023-02-23T01:12:26.900Z,98939.00
2023-02-23T01:14:01.104Z,98945.00
2023-02-23T01:15:34.382Z,98946.00
2023-02-23T01:17:09.046Z,98937.00
2023-02-23T01:18:45.421Z,98944.00
2023-02-23T01:20:19.249Z,98935.00
2023-02-23T01:21:53.652Z,98940.00
2023-02-23T01:23:26.878Z,98938.00
2023-02-23T01:24:59.397Z,98937.00
2023-02-23T01:26:35.145Z,98941.00
2023-02-23T01:28:08.895Z,98944.00
2023-02-23T01:29:44.252Z,98938.00
2023-02-23T01:31:18.174Z,98944.00
2023-02-23T01:32:53.156Z,98936.00
2023-02-23T01:34:28.229Z,98942.00
2023-02-23T01:36:01.898Z,98936.00
2023-02-23T01:37:36.364Z,98938.00
2023-02-23T01:39:13.646Z,98931.00
2023-02-23T01:40:47.740Z,98931.00
2023-02-23T01:42:20.262Z,98934.00
2023-02-23T01:43:59.948Z,98940.00
2023-02-23T01:45:35.683Z,98941.00
2023-02-23T01:47:08.547Z,98940.00
2023-02-23T01:48:43.142Z,98931.00
2023-02-23T01:50:16.642Z,98939.00
2023-02-23T01:51:57.236Z,98948.00
2023-02-23T01:53:35.693Z,98943.00
2023-02-23T01:55:12.885Z,98945.00
2023-02-23T01:56:57.814Z,98936.00
2023-02-23T01:58:32.990Z,98944.00
2023-02-23T02:00:15.053Z,98934.00
2023-02-23T02:01:50.040Z,98934.00
2023-02-23T02:03:31.375Z,98937.00
2023-02-23T02:05:14.134Z,98936.00
2023-02-23T02:06:53.633Z,98935.00
2023-02-23T02:08:30.185Z,98931.00
2023-02-23T02:10:33.992Z,98934.00
2023-02-23T02:12:15.083Z,98932.00
2023-02-23T02:13:52.273Z,98933.00
2023-02-23T02:15:31.942Z,98932.00
2023-02-23T02:17:33.115Z,98930.00
2023-02-23T02:19:49.623Z,98924.00
2023-02-23T02:22:20.857Z,98936.00
2023-02-23T02:24:32.663Z,98924.00
2023-02-23T02:26:21.322Z,98917.00
2023-02-23T02:28:36.703Z,98919.00
2023-02-23T02:30:57.544Z,98924.00
2023-02-23T02:33:10.887Z,98927.00
2023-02-23T02:35:19.707Z,98920.00
2023-02-23T02:37:21.373Z,98921.00
2023-02-23T02:39:07.996Z,98917.00
2023-02-23T02:40:53.361Z,98925.00
2023-02-23T02:42:36.870Z,98912.00
2023-02-23T02:44:19.322Z,98920.00
2023-02-23T02:46:01.152Z,98916.00
2023-02-23T02:47:43.899Z,98911.00
2023-02-23T02:49:27.542Z,98917.00
2023-02-23T02:51:17.458Z,98911.00
2023-02-23T02:53:02.145Z,98902.00
2023-02-23T02:54:41.286Z,98910.00
2023-02-23T02:56:20.972Z,98908.00
2023-02-23T02:57:59.271Z,98909.00
2023-02-23T03:00:00.166Z,98902.00
2023-02-23T03:01:51.684Z,98906.00
2023-02-23T03:03:54.924Z,98899.00
2023-02-23T03:05:56.780Z,98898.00
2023-02-23T03:07:58.443Z,98895.00
2023-02-23T03:10:01.718Z,98902.00
2023-02-23T03:11:58.839Z,98896.00
2023-02-23T03:14:06.886Z,98897.00
2023-02-23T03:16:14.319Z,98892.00
2023-02-23T03:18:15.291Z,98892.00
2023-02-23T03:20:15.639Z,98902.00
2023-02-23T03:22:17.573Z,98904.00
2023-02-23T03:24:25.071Z,98912.00
2023-02-23T03:26:25.715Z,98912.00
2023-02-23T03:28:29.700Z,98903.00
2023-02-23T03:30:33.233Z,98900.00
2023-02-23T03:32:31.447Z,98901.00
2023-02-23T03:34:31.972Z,98904.00
2023-02-23T03:36:31.389Z,98903.00
2023-02-23T03:38:29.658Z,98903.00
2023-02-23T03:40:26.608Z,98900.00
2023-02-23T03:42:26.491Z,98911.00
2023-02-23T03:44:23.526Z,98897.00
2023-02-23T03:46:17.077Z,98901.00
2023-02-23T03:48:12.537Z,98905.00
2023-02-23T03:50:08.304Z,98894.00
2023-02-23T03:52:06.117Z,98903.00
2023-02-23T03:54:05.891Z,98898.00
2023-02-23T03:56:02.208Z,98907.00
2023-02-23T03:57:58.137Z,98906.00
2023-02-23T03:59:56.539Z,98908.00
2023-02-23T04:01:51.073Z,98910.00
2023-02-23T04:03:45.517Z,98901.00
2023-02-23T04:05:39.740Z,98902.00
2023-02-23T04:07:37.163Z,98912.00
2023-02-23T04:09:28.331Z,98908.00
2023-02-23T04:11:45.949Z,98908.00
2023-02-23T04:13:27.464Z,98915.00
2023-02-23T04:15:09.788Z,98905.00
2023-02-23T04:16:43.311Z,98894.00
2023-02-23T04:18:19.432Z,98903.00
2023-02-23T04:19:53.800Z,98907.00
2023-02-23T04:21:27.216Z,98909.00
2023-02-23T04:23:00.424Z,98910.00
2023-02-23T04:24:33.504Z,98907.00
2023-02-23T04:26:06.697Z,98905.00
2023-02-23T04:27:39.111Z,98915.00
2023-02-23T04:29:14.314Z,98912.00
2023-02-23T04:30:47.543Z,98916.00
2023-02-23T04:32:21.807Z,98915.00
2023-02-23T04:33:55.164Z,98916.00
2023-02-23T04:35:29.861Z,98910.00
2023-02-23T04:37:03.022Z,98909.00
2023-02-23T04:38:36.283Z,98915.00
2023-02-23T04:40:11.091Z,98913.00
2023-02-23T04:41:44.327Z,98917.00
2023-02-23T04:43:17.573Z,98915.00
2023-02-23T04:44:52.047Z,98910.00
2023-02-23T04:46:25.772Z,98917.00
2023-02-23T04:47:58.898Z,98919.00
2023-02-23T04:49:31.124Z,98915.00
2023-02-23T04:51:04.672Z,98925.00
2023-02-23T04:52:38.941Z,98916.00
2023-02-23T04:54:12.321Z,98919.00
2023-02-23T04:55:47.330Z,98917.00
2023-02-23T04:57:20.706Z,98920.00
2023-02-23T04:58:53.824Z,98911.00
2023-02-23T05:00:30.193Z,98926.00
2023-02-23T05:02:03.629Z,98917.00
2023-02-23T05:03:37.211Z,98924.00
2023-02-23T05:05:10.313Z,98924.00
2023-02-23T05:06:43.859Z,98926.00
2023-02-23T05:08:17.027Z,98928.00
2023-02-23T05:09:50.296Z,98930.00
2023-02-23T05:11:24.840Z,98927.00
2023-02-23T05:12:59.062Z,98935.00
2023-02-23T05:14:32.228Z,98926.00
2023-02-23T05:16:08.560Z,98929.00
2023-02-23T05:17:43.086Z,98940.00
2023-02-23T05:19:16.445Z,98934.00
2023-02-23T05:20:49.635Z,98940.00
2023-02-23T05:22:22.545Z,98929.00
2023-02-23T05:23:57.101Z,98927.00
2023-02-23T05:25:30.330Z,98933.00
2023-02-23T05:27:03.399Z,98942.00
2023-02-23T05:28:39.531Z,98924.00
2023-02-23T05:30:13.286Z,98927.00
2023-02-23T05:31:48.688Z,98928.00
2023-02-23T05:33:22.397Z,98933.00
2023-02-23T05:34:55.629Z,98935.00
2023-02-23T05:36:28.468Z,98940.00
2023-02-23T05:38:01.660Z,98938.00
2023-02-23T05:39:34.875Z,98931.00
2023-02-23T05:41:08.652Z,98938.00
2023-02-23T05:42:41.884Z,98936.00
2023-02-23T05:44:15.578Z,98941.00
2023-02-23T05:45:48.667Z,98939.00
2023-02-23T05:47:23.231Z,98938.00
2023-02-23T05:49:00.715Z,98940.00
2023-02-23T05:50:34.132Z,98936.00
2023-02-23T05:52:08.320Z,98942.00
2023-02-23T05:53:42.045Z,98934.00
2023-02-23T05:55:15.465Z,98935.00
2023-02-23T05:56:49.013Z,98931.00
2023-02-23T05:58:22.148Z,98934.00
2023-02-23T05:59:55.423Z,98930.00
2023-02-23T06:01:29.282Z,98936.00
2023-02-23T06:03:04.117Z,98939.00
2023-02-23T06:04:37.448Z,98943.00
2023-02-23T06:06:10.628Z,98951.00
2023-02-23T06:07:43.685Z,98949.00
2023-02-23T06:09:17.160Z,98947.00
2023-02-23T06:10:50.554Z,98943.00
2023-02-23T06:12:24.048Z,98950.00
2023-02-23T06:14:00.361Z,98951.00
2023-02-23T06:15:33.801Z,98951.00
2023-02-23T06:17:07.528Z,98949.00
2023-02-23T06:18:42.246Z,98950.00
2023-02-23T06:20:15.664Z,98954.00
2023-02-23T06:21:49.224Z,98958.00
2023-02-23T06:23:22.673Z,98955.00
2023-02-23T06:24:55.940Z,98962.00
2023-02-23T06:26:29.505Z,98957.00
2023-02-23T06:28:02.753Z,98962.00
2023-02-23T06:29:37.139Z,98965.00
2023-02-23T06:31:10.534Z,98959.00
2023-02-23T06:32:43.786Z,98964.00
2023-02-23T06:34:21.926Z,98960.00
2023-02-23T06:35:55.726Z,98968.00
2023-02-23T06:37:29.117Z,98967.00
2023-02-23T06:39:02.446Z,98968.00
2023-02-23T06:40:35.750Z,98970.00
2023-02-23T06:42:08.881Z,98971.00
2023-02-23T06:43:42.120Z,98971.00
2023-02-23T06:45:15.262Z,98979.00
2023-02-23T06:46:48.859Z,98982.00
2023-02-23T06:48:22.116Z,98978.00
2023-02-23T06:49:56.648Z,98977.00
2023-02-23T06:51:30.013Z,98978.00
2023-02-23T06:53:03.309Z,98987.00
2023-02-23T06:54:37.827Z,98982.00
2023-02-23T06:56:12.536Z,98988.00
2023-02-23T06:57:45.797Z,98989.00
2023-02-23T06:59:19.147Z,98990.00
2023-02-23T07:00:54.193Z,98995.00
2023-02-23T07:02:27.359Z,98994.00
2023-02-23T07:04:01.348Z,99002.00
2023-02-23T07:05:36.224Z,98998.00
2023-02-23T07:07:09.630Z,98998.00
2023-02-23T07:08:42.994Z,98995.00
2023-02-23T07:10:16.264Z,98999.00
2023-02-23T07:11:48.548Z,99004.00
2023-02-23T07:13:22.150Z,99000.00
2023-02-23T07:14:55.301Z,99014.00
2023-02-23T07:16:29.024Z,99007.00
2023-02-23T07:18:02.279Z,99010.00
2023-02-23T07:19:35.710Z,99012.00
2023-02-23T07:21:10.199Z,99013.00
2023-02-23T07:22:43.689Z,99013.00
2023-02-23T07:24:16.878Z,99015.00
2023-02-23T07:25:51.788Z,99019.00
2023-02-23T07:27:24.886Z,99013.00
2023-02-23T07:28:58.125Z,99008.00
2023-02-23T07:30:31.394Z,99014.00
2023-02-23T07:32:05.308Z,99017.00
2023-02-23T07:33:38.538Z,99021.00
2023-02-23T07:35:12.196Z,99020.00
2023-02-23T07:36:46.966Z,99027.00
2023-02-23T07:38:20.722Z,99018.00
2023-02-23T07:39:53.903Z,99028.00
2023-02-23T07:41:27.022Z,99019.00
2023-02-23T07:43:00.643Z,99022.00
2023-02-23T07:44:33.889Z,99019.00
2023-02-23T07:46:07.308Z,99026.00
2023-02-23T07:47:40.557Z,99017.00
2023-02-23T07:49:14.698Z,99022.00
2023-02-23T07:50:48.614Z,99028.00
2023-02-23T07:52:23.292Z,99022.00
2023-02-23T07:53:56.570Z,99026.00
2023-02-23T07:55:29.871Z,99027.00
2023-02-23T07:57:03.481Z,99023.00
2023-02-23T07:58:37.059Z,99031.00
2023-02-23T08:00:12.327Z,99025.00
2023-02-23T08:01:49.518Z,99035.00
2023-02-23T08:03:22.791Z,99026.00
2023-02-23T08:04:56.293Z,99033.00
2023-02-23T08:06:29.514Z,99039.00
2023-02-23T08:08:04.048Z,99043.00
2023-02-23T08:09:37.375Z,99037.00
2023-02-23T08:11:10.761Z,99035.00
2023-02-23T08:12:43.978Z,99033.00
2023-02-23T08:14:17.159Z,99036.00
2023-02-23T08:15:50.297Z,99047.00
2023-02-23T08:17:23.878Z,99049.00
2023-02-23T08:18:59.024Z,99040.00
2023-02-23T08:20:32.391Z,99051.00
2023-02-23T08:22:07.719Z,99056.00
2023-02-23T08:23:43.713Z,99052.00
2023-02-23T08:25:20.176Z,99049.00
2023-02-23T08:26:56.863Z,99050.00
2023-02-23T08:28:31.023Z,99047.00
2023-02-23T08:30:05.559Z,99047.00
2023-02-23T08:31:38.961Z,99059.00
2023-02-23T08:33:12.308Z,99051.00
2023-02-23T08:34:45.636Z,99056.00
2023-02-23T08:36:18.879Z,99059.00
2023-02-23T08:37:52.059Z,99064.00
2023-02-23T08:39:26.690Z,99060.00
2023-02-23T08:41:02.187Z,99062.00
2023-02-23T08:42:35.797Z,99068.00
2023-02-23T08:44:09.231Z,99065.00
2023-02-23T08:45:42.484Z,99065.00
2023-02-23T08:47:16.600Z,99068.00
2023-02-23T08:48:49.891Z,99066.00
2023-02-23T08:50:23.640Z,99064.00
2023-02-23T08:51:57.584Z,99067.00
2023-02-23T08:53:30.978Z,99073.00
2023-02-23T08:55:06.676Z,99076.00
2023-02-23T08:56:39.859Z,99072.00
2023-02-23T08:58:13.157Z,99078.00
2023-02-23T08:59:46.611Z,99076.00
2023-02-23T09:01:23.102Z,99074.00
2023-02-23T09:02:56.552Z,99075.00
2023-02-23T09:04:32.508Z,99079.00
2023-02-23T09:06:14.568Z,99074.00
2023-02-23T09:07:49.105Z,99075.00
2023-02-23T09:09:22.305Z,99076.00
2023-02-23T09:10:57.106Z,99085.00
2023-02-23T09:12:30.317Z,99079.00
2023-02-23T09:14:03.720Z,99082.00
2023-02-23T09:15:36.946Z,99074.00
2023-02-23T09:17:10.269Z,99084.00
2023-02-23T09:18:43.825Z,99091.00
2023-02-23T09:20:18.292Z,99080.00
2023-02-23T09:21:51.627Z,99090.00
2023-02-23T09:23:25.573Z,99097.00
2023-02-23T09:24:58.753Z,99101.00
2023-02-23T09:26:35.741Z,99098.00
2023-02-23T09:28:09.537Z,99100.00
2023-02-23T09:29:43.758Z,99098.00
2023-02-23T09:31:19.620Z,99095.00
2023-02-23T09:32:54.429Z,99093.00
2023-02-23T09:34:30.678Z,99101.00
2023-02-23T09:36:07.786Z,99091.00
2023-02-23T09:37:41.022Z,99100.00
2023-02-23T09:39:14.143Z,99095.00
2023-02-23T09:40:53.021Z,99100.00
2023-02-23T09:42:42.382Z,99097.00
2023-02-23T09:44:33.352Z,99104.00
2023-02-23T09:46:19.048Z,99101.00
2023-02-23T09:48:09.396Z,99100.00
2023-02-23T09:49:46.613Z,99104.00
2023-02-23T09:51:22.936Z,99110.00
2023-02-23T09:53:03.624Z,99104.00
2023-02-23T09:54:37.727Z,99106.00
2023-02-23T09:56:19.720Z,99105.00
2023-02-23T09:57:55.948Z,99111.00
2023-02-23T09:59:30.065Z,99114.00
2023-02-23T10:01:39.634Z,99114.00
2023-02-23T10:03:28.281Z,99118.00
2023-02-23T10:05:07.964Z,99111.00
2023-02-23T10:06:45.740Z,99112.00
2023-02-23T10:08:39.494Z,99121.00
2023-02-23T10:10:28.210Z,99110.00
2023-02-23T10:12:11.080Z,99122.00
2023-02-23T10:14:00.373Z,99122.00
2023-02-23T10:15:45.411Z,99123.00
2023-02-23T10:17:37.586Z,99124.00
2023-02-23T10:19:22.748Z,99125.00
2023-02-23T10:21:04.148Z,99113.00
2023-02-23T10:22:39.660Z,99129.00
2023-02-23T10:24:21.022Z,99125.00
2023-02-23T10:26:01.518Z,99124.00
2023-02-23T10:27:42.264Z,99126.00
2023-02-23T10:29:27.489Z,99119.00
2023-02-23T10:31:01.858Z,99121.00
2023-02-23T10:32:42.320Z,99124.00
2023-02-23T10:34:18.521Z,99137.00
2023-02-23T10:36:11.178Z,99130.00
2023-02-23T10:37:47.458Z,99133.00
2023-02-23T10:39:20.880Z,99132.00
2023-02-23T10:40:57.347Z,99134.00
2023-02-23T10:42:31.842Z,99143.00
2023-02-23T10:44:16.674Z,99128.00
2023-02-23T10:45:56.012Z,99130.00
2023-02-23T10:47:33.711Z,99129.00
2023-02-23T10:49:11.912Z,99137.00
2023-02-23T10:50:49.067Z,99129.00
2023-02-23T10:52:32.885Z,99143.00
2023-02-23T10:54:37.967Z,99135.00
2023-02-23T10:56:14.286Z,99140.00
2023-02-23T10:57:47.910Z,99136.00
2023-02-23T10:59:21.780Z,99136.00
2023-02-23T11:00:59.924Z,99136.00
2023-02-23T11:02:34.135Z,99140.00
2023-02-23T11:04:22.168Z,99139.00
2023-02-23T11:05:55.496Z,99136.00
2023-02-23T11:07:33.037Z,99124.00
2023-02-23T11:09:41.890Z,99127.00
2023-02-23T11:11:28.716Z,99135.00
2023-02-23T11:13:02.026Z,99137.00
2023-02-23T11:14:35.328Z,99132.00
2023-02-23T11:16:14.396Z,99126.00
2023-02-23T11:17:48.030Z,99133.00
2023-02-23T11:19:36.969Z,99133.00
2023-02-23T11:21:14.059Z,99131.00
2023-02-23T11:22:47.975Z,99132.00
2023-02-23T11:24:27.525Z,99136.00
2023-02-23T11:26:03.894Z,99127.00
2023-02-23T11:27:37.102Z,99131.00
2023-02-23T11:29:26.335Z,99123.00
2023-02-23T11:31:04.952Z,99121.00
2023-02-23T11:32:42.448Z,99132.00
2023-02-23T11:34:28.734Z,99131.00
2023-02-23T11:36:18.015Z,99127.00
2023-02-23T11:37:51.638Z,99129.00
2023-02-23T11:39:24.781Z,99125.00
2023-02-23T11:41:04.100Z,99123.00
2023-02-23T11:42:37.310Z,99127.00
2023-02-23T11:44:22.388Z,99124.00
2023-02-23T11:45:59.371Z,99126.00
2023-02-23T11:47:35.304Z,99121.00
2023-02-23T11:49:19.008Z,99124.00
2023-02-23T11:50:54.936Z,99116.00
2023-02-23T11:52:28.862Z,99126.00
2023-02-23T11:54:05.721Z,99122.00
2023-02-23T11:55:40.425Z,99120.00
2023-02-23T11:57:22.949Z,99117.00
2023-02-23T11:59:01.036Z,99122.00
2023-02-23T12:00:34.475Z,99123.00
2023-02-23T12:02:23.233Z,99121.00
2023-02-23T12:03:59.121Z,99119.00
2023-02-23T12:05:34.703Z,99123.00
2023-02-23T12:07:34.839Z,99129.00
2023-02-23T12:09:21.637Z,99121.00
2023-02-23T12:11:01.062Z,99120.00
2023-02-23T12:12:49.209Z,99126.00
2023-02-23T12:14:32.717Z,99126.00
2023-02-23T12:16:17.758Z,99121.00
2023-02-23T12:17:59.117Z,99120.00
2023-02-23T12:19:38.922Z,99122.00
2023-02-23T12:21:29.744Z,99126.00
2023-02-23T12:23:11.453Z,99115.00
2023-02-23T12:24:50.146Z,99124.00
2023-02-23T12:26:26.291Z,99123.00
2023-02-23T12:28:18.275Z,99123.00
2023-02-23T12:30:10.725Z,99119.00
2023-02-23T12:31:50.392Z,99116.00
2023-02-23T12:33:34.749Z,99109.00
2023-02-23T12:35:16.039Z,99117.00
2023-02-23T12:36:59.209Z,99114.00
2023-02-23T12:38:49.363Z,99121.00
2023-02-23T12:40:28.543Z,99109.00
2023-02-23T12:42:11.733Z,99119.00
2023-02-23T12:43:53.826Z,99123.00
2023-02-23T12:45:36.947Z,99125.00
2023-02-23T12:47:25.608Z,99117.00
2023-02-23T12:49:12.387Z,99116.00
2023-02-23T12:50:54.158Z,99126.00
2023-02-23T12:52:34.600Z,99122.00
2023-02-23T12:54:13.018Z,99125.00
2023-02-23T12:56:12.219Z,99119.00
2023-02-23T12:57:56.151Z,99118.00
2023-02-23T13:00:24.684Z,99114.00
2023-02-23T13:02:01.263Z,99122.00
2023-02-23T13:04:22.133Z,99120.00
2023-02-23T13:06:05.094Z,99128.00
2023-02-23T13:07:55.448Z,99123.00
2023-02-23T13:09:46.447Z,99129.00
2023-02-23T13:11:38.444Z,99131.00
2023-02-23T13:13:31.044Z,99129.00
2023-02-23T13:15:23.640Z,99126.00
2023-02-23T13:17:05.485Z,99123.00
2023-02-23T13:18:48.462Z,99127.00
2023-02-23T13:20:30.896Z,99130.00
2023-02-23T13:22:27.507Z,99120.00
2023-02-23T13:24:07.480Z,99131.00
2023-02-23T13:25:51.003Z,99123.00
2023-02-23T13:27:31.770Z,99131.00
2023-02-23T13:29:20.875Z,99142.00
2023-02-23T13:30:56.701Z,99131.00
2023-02-23T13:32:34.338Z,99140.00
2023-02-23T13:34:13.489Z,99136.00
2023-02-23T13:35:46.835Z,99140.00
2023-02-23T13:37:27.428Z,99139.00
2023-02-23T13:39:36.976Z,99140.00
2023-02-23T13:41:28.465Z,99145.00
2023-02-23T13:43:17.472Z,99145.00
2023-02-23T13:45:01.550Z,99147.00
2023-02-23T13:46:46.865Z,99145.00
2023-02-23T13:48:32.106Z,99151.00
2023-02-23T13:50:18.604Z,99146.00
2023-02-23T13:51:57.852Z,99152.00
2023-02-23T13:53:41.153Z,99153.00
2023-02-23T13:55:49.885Z,99147.00
2023-02-23T13:57:24.979Z,99161.00
2023-02-23T13:59:03.287Z,99159.00
2023-02-23T14:00:36.782Z,99159.00
2023-02-23T14:02:35.686Z,99157.00
2023-02-23T14:04:17.633Z,99158.00
2023-02-23T14:05:57.589Z,99156.00
2023-02-23T14:07:33.115Z,99157.00
2023-02-23T14:09:14.030Z,99152.00
2023-02-23T14:10:48.574Z,99161.00
2023-02-23T14:12:27.758Z,99159.00
2023-02-23T14:14:04.488Z,99165.00
2023-02-23T14:15:49.245Z,99154.00
2023-02-23T14:17:44.170Z,99162.00
2023-02-23T14:19:38.249Z,99166.00
2023-02-23T14:21:29.222Z,99158.00
2023-02-23T14:23:36.059Z,99164.00
2023-02-23T14:25:49.790Z,99168.00
2023-02-23T14:27:41.688Z,99159.00
2023-02-23T14:29:28.380Z,99168.00
2023-02-23T14:31:04.879Z,99164.00
2023-02-23T14:32:41.440Z,99164.00
2023-02-23T14:34:15.005Z,99164.00
2023-02-23T14:35:49.577Z,99161.00
2023-02-23T14:37:32.138Z,99167.00
2023-02-23T14:39:16.601Z,99161.00
2023-02-23T14:40:54.234Z,99162.00
2023-02-23T14:42:30.609Z,99167.00
2023-02-23T14:44:20.050Z,99165.00
2023-02-23T14:45:57.204Z,99169.00
2023-02-23T14:47:30.788Z,99167.00
2023-02-23T14:49:11.597Z,99170.00
2023-02-23T14:50:45.305Z,99164.00
2023-02-23T14:52:24.476Z,99178.00
2023-02-23T14:54:00.598Z,99176.00
2023-02-23T14:55:36.679Z,99171.00
2023-02-23T14:57:21.582Z,99172.00
2023-02-23T14:58:59.494Z,99172.00
2023-02-23T15:00:42.080Z,99174.00
2023-02-23T15:02:22.709Z,99172.00
2023-02-23T15:04:12.242Z,99174.00
2023-02-23T15:05:51.136Z,99171.00
2023-02-23T15:07:35.072Z,99169.00
2023-02-23T15:09:18.700Z,99168.00
2023-02-23T15:11:01.429Z,99175.00
2023-02-23T15:12:39.615Z,99171.00
2023-02-23T15:14:27.436Z,99170.00
2023-02-23T15:16:07.520Z,99173.00
2023-02-23T15:17:46.941Z,99170.00
2023-02-23T15:19:46.892Z,99170.00
2023-02-23T15:21:23.968Z,99174.00
2023-02-23T15:22:59.267Z,99176.00
2023-02-23T15:24:42.648Z,99174.00
2023-02-23T15:26:31.935Z,99172.00
2023-02-23T15:28:25.160Z,99169.00
2023-02-23T15:29:58.502Z,99178.00
2023-02-23T15:31:32.358Z,99177.00
2023-02-23T15:33:12.049Z,99180.00
2023-02-23T15:34:45.642Z,99177.00
2023-02-23T15:36:27.807Z,99183.00
2023-02-23T15:38:13.673Z,99184.00
2023-02-23T15:39:56.823Z,99181.00
2023-02-23T15:41:34.550Z,99182.00
2023-02-23T15:43:13.011Z,99178.00
2023-02-23T15:44:47.121Z,99190.00
2023-02-23T15:46:26.265Z,99184.00
2023-02-23T15:48:05.637Z,99184.00
2023-02-23T15:49:42.096Z,99182.00
2023-02-23T15:51:32.063Z,99188.00
2023-02-23T15:53:14.588Z,99183.00
2023-02-23T15:54:56.708Z,99186.00
2023-02-23T15:56:31.544Z,99189.00
2023-02-23T15:58:19.586Z,99187.00
2023-02-23T15:59:54.430Z,99190.00
2023-02-23T16:01:30.460Z,99190.00
2023-02-23T16:03:06.944Z,99183.00
2023-02-23T16:04:44.208Z,99184.00
2023-02-23T16:06:27.706Z,99180.00
2023-02-23T16:08:23.582Z,99169.00
2023-02-23T16:10:27.919Z,99176.00
2023-02-23T16:12:12.745Z,99177.00
2023-02-23T16:13:58.198Z,99173.00
2023-02-23T16:15:40.201Z,99177.00
2023-02-23T16:17:30.931Z,99173.00
2023-02-23T16:19:09.295Z,99171.00
2023-02-23T16:20:56.733Z,99171.00
2023-02-23T16:22:33.432Z,99170.00
2023-02-23T16:24:10.785Z,99170.00
2023-02-23T16:25:46.081Z,99167.00
2023-02-23T16:27:20.030Z,99170.00
2023-02-23T16:28:59.629Z,99171.00
2023-02-23T16:30:43.855Z,99174.00
2023-02-23T16:32:20.404Z,99176.00
2023-02-23T16:33:59.756Z,99174.00
2023-02-23T16:35:39.426Z,99171.00
2023-02-23T16:37:18.818Z,99171.00
2023-02-23T16:39:00.771Z,99168.00
2023-02-23T16:40:34.463Z,99162.00
2023-02-23T16:42:07.920Z,99168.00
2023-02-23T16:43:41.187Z,99173.00
2023-02-23T16:45:19.187Z,99172.00
2023-02-23T16:47:37.173Z,99163.00
2023-02-23T16:49:13.423Z,99166.00
2023-02-23T16:50:47.729Z,99163.00
2023-02-23T16:52:25.569Z,99158.00
2023-02-23T16:53:58.743Z,99160.00
2023-02-23T16:55:40.307Z,99161.00
2023-02-23T16:57:23.580Z,99170.00
2023-02-23T16:59:03.450Z,99165.00
2023-02-23T17:00:38.682Z,99166.00
2023-02-23T17:02:14.262Z,99168.00
2023-02-23T17:03:53.185Z,99174.00
2023-02-23T17:05:27.004Z,99163.00
2023-02-23T17:07:00.789Z,99166.00
2023-02-23T17:08:36.779Z,99170.00
2023-02-23T17:10:24.833Z,99164.00
2023-02-23T17:11:59.414Z,99166.00
2023-02-23T17:13:34.320Z,99166.00
2023-02-23T17:15:16.246Z,99169.00
2023-02-23T17:16:51.842Z,99164.00
2023-02-23T17:18:28.255Z,99170.00
2023-02-23T17:20:01.441Z,99178.00
2023-02-23T17:21:34.718Z,99184.00
2023-02-23T17:23:08.134Z,99173.00
2023-02-23T17:24:41.570Z,99175.00
2023-02-23T17:26:15.004Z,99172.00
2023-02-23T17:27:48.231Z,99175.00
2023-02-23T17:29:21.402Z,99178.00
2023-02-23T17:30:55.101Z,99174.00
2023-02-23T17:32:45.828Z,99173.00
2023-02-23T17:34:30.692Z,99187.00
2023-02-23T17:36:19.097Z,99188.00
2023-02-23T17:37:59.980Z,99186.00
2023-02-23T17:39:44.094Z,99183.00
2023-02-23T17:41:31.969Z,99184.00
2023-02-23T17:43:12.726Z,99185.00
2023-02-23T17:44:55.307Z,99193.00
2023-02-23T17:46:41.690Z,99180.00
2023-02-23T17:48:33.280Z,99183.00
2023-02-23T17:50:25.745Z,99181.00
2023-02-23T17:52:03.548Z,99186.00
2023-02-23T17:53:45.829Z,99184.00
2023-02-23T17:55:27.911Z,99184.00
2023-02-23T17:57:15.527Z,99182.00
2023-02-23T17:58:50.391Z,99188.00
2023-02-23T18:00:25.291Z,99183.00
2023-02-23T18:01:59.513Z,99191.00
2023-02-23T18:03:39.444Z,99182.00
2023-02-23T18:05:15.803Z,99202.00
2023-02-23T18:06:49.844Z,99200.00
2023-02-23T18:08:24.718Z,99186.00
2023-02-23T18:09:59.556Z,99187.00
2023-02-23T18:11:35.619Z,99188.00
2023-02-23T18:13:10.053Z,99189.00
2023-02-23T18:14:45.034Z,99198.00
2023-02-23T18:16:20.532Z,99193.00
2023-02-23T18:17:55.284Z,99193.00
2023-02-23T18:19:31.302Z,99199.00
2023-02-23T18:21:05.731Z,99194.00
2023-02-23T18:22:39.668Z,99194.00
2023-02-23T18:24:14.920Z,99199.00
2023-02-23T18:25:50.697Z,99191.00
2023-02-23T18:27:24.816Z,99190.00
2023-02-23T18:28:58.724Z,99199.00
2023-02-23T18:30:40.727Z,99188.00
2023-02-23T18:32:15.224Z,99201.00
2023-02-23T18:33:52.943Z,99199.00
2023-02-23T18:35:28.778Z,99204.00
2023-02-23T18:37:03.696Z,99206.00
2023-02-23T18:38:39.532Z,99200.00
2023-02-23T18:40:23.912Z,99211.00
2023-02-23T18:41:58.375Z,99211.00
2023-02-23T18:43:32.380Z,99205.00
2023-02-23T18:45:09.133Z,99210.00
2023-02-23T18:46:44.381Z,99204.00
2023-02-23T18:48:18.541Z,99220.00
2023-02-23T18:49:52.913Z,99208.00
2023-02-23T18:51:28.301Z,99209.00
2023-02-23T18:53:05.229Z,99212.00
2023-02-23T18:54:41.329Z,99212.00
2023-02-23T18:56:20.238Z,99213.00
2023-02-23T18:57:54.566Z,99220.00
2023-02-23T18:59:28.667Z,99207.00
2023-02-23T19:01:03.107Z,99212.00
2023-02-23T19:02:37.170Z,99198.00
2023-02-23T19:04:21.069Z,99194.00
2023-02-23T19:05:54.875Z,99192.00
2023-02-23T19:07:30.449Z,99195.00
2023-02-23T19:09:09.440Z,99200.00
2023-02-23T19:10:43.290Z,99200.00
2023-02-23T19:12:16.687Z,99201.00
2023-02-23T19:13:52.207Z,99198.00
2023-02-23T19:15:25.633Z,99205.00
2023-02-23T19:16:59.459Z,99209.00
2023-02-23T19:18:32.750Z,99206.00
2023-02-23T19:20:12.960Z,99204.00
2023-02-23T19:21:46.099Z,99205.00
2023-02-23T19:23:21.165Z,99201.00
2023-02-23T19:24:54.346Z,99204.00
2023-02-23T19:26:29.318Z,99199.00
2023-02-23T19:28:02.878Z,99206.00
2023-02-23T19:29:36.413Z,99212.00
2023-02-23T19:31:15.794Z,99212.00
2023-02-23T19:32:49.702Z,99208.00